sensor_id;sensor_type;location;lat;lon;timestamp;pressure;altitude;pressure_sealevel;temperature;humidity
37852;BME280;23691;52.486;4.650;2023-03-15T00:01:18;101144.59;;;4.72;75.75
37852;BME280;23691;52.486;4.650;2023-03-15T00:03:45;101151.69;;;4.72;75.78
37852;BME280;23691;52.486;4.650;2023-03-15T00:06:11;101145.31;;;4.74;75.60
37852;BME280;23691;52.486;4.650;2023-03-15T00:08:37;101140.63;;;4.78;75.38
37852;BME280;23691;52.486;4.650;2023-03-15T00:11:02;101151.34;;;4.77;75.20
37852;BME280;23691;52.486;4.650;2023-03-15T00:13:28;101154.00;;;4.77;74.84
37852;BME280;23691;52.486;4.650;2023-03-15T00:15:59;101154.13;;;4.75;74.47
37852;BME280;23691;52.486;4.650;2023-03-15T00:18:26;101155.81;;;4.76;74.26
37852;BME280;23691;52.486;4.650;2023-03-15T00:20:51;101154.97;;;4.76;73.80
37852;BME280;23691;52.486;4.650;2023-03-15T00:23:17;101155.91;;;4.74;73.89
37852;BME280;23691;52.486;4.650;2023-03-15T00:25:43;101158.56;;;4.74;73.79
37852;BME280;23691;52.486;4.650;2023-03-15T00:28:09;101161.47;;;4.71;73.40
37852;BME280;23691;52.486;4.650;2023-03-15T00:30:35;101170.16;;;4.73;73.70
37852;BME280;23691;52.486;4.650;2023-03-15T00:33:01;101163.03;;;4.74;73.21
37852;BME280;23691;52.486;4.650;2023-03-15T00:35:26;101176.03;;;4.77;73.31
37852;BME280;23691;52.486;4.650;2023-03-15T00:37:55;101168.22;;;4.76;72.98
37852;BME280;23691;52.486;4.650;2023-03-15T00:40:21;101165.59;;;4.76;72.99
37852;BME280;23691;52.486;4.650;2023-03-15T00:42:47;101177.03;;;4.76;72.91
37852;BME280;23691;52.486;4.650;2023-03-15T00:45:15;101178.22;;;4.72;73.31
37852;BME280;23691;52.486;4.650;2023-03-15T00:47:42;101181.00;;;4.70;73.16
37852;BME280;23691;52.486;4.650;2023-03-15T00:50:08;101194.13;;;4.72;72.93
37852;BME280;23691;52.486;4.650;2023-03-15T00:52:35;101198.47;;;4.73;72.75
37852;BME280;23691;52.486;4.650;2023-03-15T00:55:01;101197.59;;;4.72;72.90
37852;BME280;23691;52.486;4.650;2023-03-15T00:57:27;101209.66;;;4.77;72.92
37852;BME280;23691;52.486;4.650;2023-03-15T00:59:52;101201.59;;;4.78;72.71
37852;BME280;23691;52.486;4.650;2023-03-15T01:02:18;101212.81;;;4.82;72.83
37852;BME280;23691;52.486;4.650;2023-03-15T01:04:47;101211.72;;;4.84;72.83
37852;BME280;23691;52.486;4.650;2023-03-15T01:07:13;101217.03;;;4.84;72.95
37852;BME280;23691;52.486;4.650;2023-03-15T01:09:38;101211.50;;;4.87;72.82
37852;BME280;23691;52.486;4.650;2023-03-15T01:12:03;101215.94;;;4.87;72.85
37852;BME280;23691;52.486;4.650;2023-03-15T01:14:29;101222.97;;;4.88;72.97
37852;BME280;23691;52.486;4.650;2023-03-15T01:16:54;101221.88;;;4.90;72.55
37852;BME280;23691;52.486;4.650;2023-03-15T01:19:20;101228.13;;;4.89;72.80
37852;BME280;23691;52.486;4.650;2023-03-15T01:21:45;101236.22;;;4.88;72.78
37852;BME280;23691;52.486;4.650;2023-03-15T01:24:13;101229.34;;;4.85;72.58
37852;BME280;23691;52.486;4.650;2023-03-15T01:26:39;101238.97;;;4.86;72.29
37852;BME280;23691;52.486;4.650;2023-03-15T01:29:05;101241.13;;;4.81;71.61
37852;BME280;23691;52.486;4.650;2023-03-15T01:31:31;101248.59;;;4.76;71.15
37852;BME280;23691;52.486;4.650;2023-03-15T01:33:57;101253.91;;;4.76;70.92
37852;BME280;23691;52.486;4.650;2023-03-15T01:36:24;101259.69;;;4.81;70.44
37852;BME280;23691;52.486;4.650;2023-03-15T01:38:50;101261.75;;;4.78;69.71
37852;BME280;23691;52.486;4.650;2023-03-15T01:41:17;101263.78;;;4.74;69.34
37852;BME280;23691;52.486;4.650;2023-03-15T01:43:43;101269.16;;;4.72;69.26
37852;BME280;23691;52.486;4.650;2023-03-15T01:46:25;101280.75;;;4.71;68.41
37852;BME280;23691;52.486;4.650;2023-03-15T01:51:33;101278.44;;;4.67;68.47
37852;BME280;23691;52.486;4.650;2023-03-15T01:56:38;101286.88;;;4.72;68.02
37852;BME280;23691;52.486;4.650;2023-03-15T01:59:08;101289.53;;;4.72;68.33
37852;BME280;23691;52.486;4.650;2023-03-15T02:01:35;101282.56;;;4.71;67.82
37852;BME280;23691;52.486;4.650;2023-03-15T02:04:07;101284.59;;;4.67;67.99
37852;BME280;23691;52.486;4.650;2023-03-15T02:06:34;101287.59;;;4.63;67.44
37852;BME280;23691;52.486;4.650;2023-03-15T02:09:05;101293.84;;;4.62;67.82
37852;BME280;23691;52.486;4.650;2023-03-15T02:11:33;101295.66;;;4.61;67.47
37852;BME280;23691;52.486;4.650;2023-03-15T02:13:59;101301.69;;;4.63;67.39
37852;BME280;23691;52.486;4.650;2023-03-15T02:16:27;101306.03;;;4.64;67.58
37852;BME280;23691;52.486;4.650;2023-03-15T02:18:53;101306.03;;;4.64;67.59
37852;BME280;23691;52.486;4.650;2023-03-15T02:26:29;101311.47;;;4.63;67.04
37852;BME280;23691;52.486;4.650;2023-03-15T02:28:57;101309.84;;;4.60;67.02
37852;BME280;23691;52.486;4.650;2023-03-15T02:31:23;101316.13;;;4.59;67.19
37852;BME280;23691;52.486;4.650;2023-03-15T02:33:50;101324.91;;;4.60;67.11
37852;BME280;23691;52.486;4.650;2023-03-15T02:36:18;101321.66;;;4.56;67.20
37852;BME280;23691;52.486;4.650;2023-03-15T02:38:45;101327.91;;;4.55;67.04
37852;BME280;23691;52.486;4.650;2023-03-15T02:41:50;101327.69;;;4.58;66.69
37852;BME280;23691;52.486;4.650;2023-03-15T02:47:56;101346.59;;;4.54;66.38
37852;BME280;23691;52.486;4.650;2023-03-15T02:50:22;101342.34;;;4.51;66.11
37852;BME280;23691;52.486;4.650;2023-03-15T02:52:48;101336.72;;;4.56;66.16
37852;BME280;23691;52.486;4.650;2023-03-15T02:55:13;101346.00;;;4.61;66.24
37852;BME280;23691;52.486;4.650;2023-03-15T02:57:39;101349.59;;;4.60;66.18
37852;BME280;23691;52.486;4.650;2023-03-15T03:00:04;101357.34;;;4.63;66.04
37852;BME280;23691;52.486;4.650;2023-03-15T03:02:41;101364.00;;;4.69;65.70
37852;BME280;23691;52.486;4.650;2023-03-15T03:05:08;101363.16;;;4.68;65.84
37852;BME280;23691;52.486;4.650;2023-03-15T03:07:34;101373.03;;;4.66;66.10
37852;BME280;23691;52.486;4.650;2023-03-15T03:10:00;101377.34;;;4.67;66.47
37852;BME280;23691;52.486;4.650;2023-03-15T03:12:25;101385.09;;;4.70;66.38
37852;BME280;23691;52.486;4.650;2023-03-15T03:14:52;101392.81;;;4.73;66.50
37852;BME280;23691;52.486;4.650;2023-03-15T03:17:17;101400.53;;;4.77;66.52
37852;BME280;23691;52.486;4.650;2023-03-15T03:19:43;101395.69;;;4.70;66.66
37852;BME280;23691;52.486;4.650;2023-03-15T03:22:09;101408.00;;;4.71;66.47
37852;BME280;23691;52.486;4.650;2023-03-15T03:24:38;101409.56;;;4.74;66.26
37852;BME280;23691;52.486;4.650;2023-03-15T03:27:03;101413.28;;;4.71;66.31
37852;BME280;23691;52.486;4.650;2023-03-15T03:29:29;101412.69;;;4.68;66.28
37852;BME280;23691;52.486;4.650;2023-03-15T03:31:54;101415.44;;;4.66;66.35
37852;BME280;23691;52.486;4.650;2023-03-15T03:34:20;101409.28;;;4.66;66.31
37852;BME280;23691;52.486;4.650;2023-03-15T03:36:45;101418.91;;;4.67;66.22
37852;BME280;23691;52.486;4.650;2023-03-15T03:39:12;101426.78;;;4.68;66.56
37852;BME280;23691;52.486;4.650;2023-03-15T03:41:38;101429.44;;;4.68;66.11
37852;BME280;23691;52.486;4.650;2023-03-15T03:44:04;101429.28;;;4.70;66.34
37852;BME280;23691;52.486;4.650;2023-03-15T03:46:30;101425.69;;;4.71;66.34
37852;BME280;23691;52.486;4.650;2023-03-15T03:48:55;101429.19;;;4.71;66.12
37852;BME280;23691;52.486;4.650;2023-03-15T03:51:21;101431.84;;;4.71;66.21
37852;BME280;23691;52.486;4.650;2023-03-15T03:53:46;101437.38;;;4.68;66.21
37852;BME280;23691;52.486;4.650;2023-03-15T03:56:11;101443.50;;;4.69;66.44
37852;BME280;23691;52.486;4.650;2023-03-15T03:58:37;101458.91;;;4.64;66.49
37852;BME280;23691;52.486;4.650;2023-03-15T04:01:02;101462.22;;;4.55;66.58
37852;BME280;23691;52.486;4.650;2023-03-15T04:03:29;101454.41;;;4.53;66.85
37852;BME280;23691;52.486;4.650;2023-03-15T04:05:56;101465.59;;;4.57;66.68
37852;BME280;23691;52.486;4.650;2023-03-15T04:08:23;101468.88;;;4.60;67.02
37852;BME280;23691;52.486;4.650;2023-03-15T04:10:54;101474.16;;;4.60;67.06
37852;BME280;23691;52.486;4.650;2023-03-15T04:13:19;101476.13;;;4.58;67.47
37852;BME280;23691;52.486;4.650;2023-03-15T04:15:46;101492.84;;;4.59;67.60
37852;BME280;23691;52.486;4.650;2023-03-15T04:18:12;101512.56;;;4.55;67.61
37852;BME280;23691;52.486;4.650;2023-03-15T04:20:37;101524.13;;;4.54;68.16
37852;BME280;23691;52.486;4.650;2023-03-15T04:23:03;101533.69;;;4.43;68.53
37852;BME280;23691;52.486;4.650;2023-03-15T04:25:31;101524.47;;;4.36;68.93
37852;BME280;23691;52.486;4.650;2023-03-15T04:27:56;101537.94;;;4.20;69.70
37852;BME280;23691;52.486;4.650;2023-03-15T04:30:28;101549.28;;;4.09;70.08
37852;BME280;23691;52.486;4.650;2023-03-15T04:32:54;101548.75;;;4.04;70.48
37852;BME280;23691;52.486;4.650;2023-03-15T04:35:29;101549.91;;;4.00;70.78
37852;BME280;23691;52.486;4.650;2023-03-15T04:37:55;101557.63;;;4.03;71.20
37852;BME280;23691;52.486;4.650;2023-03-15T04:40:24;101553.81;;;4.07;71.30
37852;BME280;23691;52.486;4.650;2023-03-15T04:42:50;101558.06;;;4.10;71.19
37852;BME280;23691;52.486;4.650;2023-03-15T04:45:17;101571.22;;;4.12;71.34
37852;BME280;23691;52.486;4.650;2023-03-15T04:47:42;101568.44;;;4.13;71.42
37852;BME280;23691;52.486;4.650;2023-03-15T04:50:08;101567.59;;;4.13;71.33
37852;BME280;23691;52.486;4.650;2023-03-15T04:52:34;101562.44;;;4.11;71.84
37852;BME280;23691;52.486;4.650;2023-03-15T04:54:59;101574.69;;;4.12;72.03
37852;BME280;23691;52.486;4.650;2023-03-15T04:57:25;101570.38;;;4.11;71.96
37852;BME280;23691;52.486;4.650;2023-03-15T04:59:50;101576.38;;;4.13;72.40
37852;BME280;23691;52.486;4.650;2023-03-15T05:02:16;101576.38;;;4.13;72.35
37852;BME280;23691;52.486;4.650;2023-03-15T05:04:41;101570.25;;;4.13;72.82
37852;BME280;23691;52.486;4.650;2023-03-15T05:07:07;101566.66;;;4.14;72.88
37852;BME280;23691;52.486;4.650;2023-03-15T05:09:33;101564.94;;;4.13;73.07
37852;BME280;23691;52.486;4.650;2023-03-15T05:12:03;101559.78;;;4.11;73.20
37852;BME280;23691;52.486;4.650;2023-03-15T05:14:28;101551.84;;;4.11;73.62
37852;BME280;23691;52.486;4.650;2023-03-15T05:16:54;101543.22;;;4.07;73.36
37852;BME280;23691;52.486;4.650;2023-03-15T05:19:22;101551.50;;;4.03;73.64
37852;BME280;23691;52.486;4.650;2023-03-15T05:21:50;101554.25;;;4.01;73.83
37852;BME280;23691;52.486;4.650;2023-03-15T05:24:15;101551.81;;;3.98;73.91
37852;BME280;23691;52.486;4.650;2023-03-15T05:26:41;101567.81;;;3.97;74.13
37852;BME280;23691;52.486;4.650;2023-03-15T05:29:06;101568.88;;;3.94;74.36
37852;BME280;23691;52.486;4.650;2023-03-15T05:31:31;101569.59;;;3.96;74.36
37852;BME280;23691;52.486;4.650;2023-03-15T05:34:02;101581.13;;;3.95;74.69
37852;BME280;23691;52.486;4.650;2023-03-15T05:36:29;101589.94;;;3.96;74.86
37852;BME280;23691;52.486;4.650;2023-03-15T05:38:55;101593.41;;;3.96;74.39
37852;BME280;23691;52.486;4.650;2023-03-15T05:41:23;101589.19;;;3.94;74.82
37852;BME280;23691;52.486;4.650;2023-03-15T05:43:49;101600.81;;;3.91;74.73
37852;BME280;23691;52.486;4.650;2023-03-15T05:46:15;101605.50;;;3.87;74.83
37852;BME280;23691;52.486;4.650;2023-03-15T05:48:41;101607.50;;;3.84;74.83
37852;BME280;23691;52.486;4.650;2023-03-15T05:51:06;101616.38;;;3.83;75.03
37852;BME280;23691;52.486;4.650;2023-03-15T05:53:32;101622.50;;;3.83;74.81
37852;BME280;23691;52.486;4.650;2023-03-15T05:55:57;101623.56;;;3.81;74.92
37852;BME280;23691;52.486;4.650;2023-03-15T05:58:23;101621.88;;;3.80;74.98
37852;BME280;23691;52.486;4.650;2023-03-15T06:00:48;101636.06;;;3.79;75.27
37852;BME280;23691;52.486;4.650;2023-03-15T06:03:14;101629.16;;;3.76;74.94
37852;BME280;23691;52.486;4.650;2023-03-15T06:05:41;101636.47;;;3.73;75.43
37852;BME280;23691;52.486;4.650;2023-03-15T06:08:10;101640.91;;;3.72;75.17
37852;BME280;23691;52.486;4.650;2023-03-15T06:10:35;101636.56;;;3.71;75.02
37852;BME280;23691;52.486;4.650;2023-03-15T06:13:01;101646.22;;;3.72;75.57
37852;BME280;23691;52.486;4.650;2023-03-15T06:15:27;101656.81;;;3.72;75.43
37852;BME280;23691;52.486;4.650;2023-03-15T06:17:52;101656.13;;;3.69;75.21
37852;BME280;23691;52.486;4.650;2023-03-15T06:20:18;101658.91;;;3.67;75.41
37852;BME280;23691;52.486;4.650;2023-03-15T06:22:43;101658.78;;;3.69;75.50
37852;BME280;23691;52.486;4.650;2023-03-15T06:25:09;101663.22;;;3.68;75.64
37852;BME280;23691;52.486;4.650;2023-03-15T06:27:35;101662.47;;;3.66;75.47
37852;BME280;23691;52.486;4.650;2023-03-15T06:30:01;101664.38;;;3.64;75.82
37852;BME280;23691;52.486;4.650;2023-03-15T06:32:26;101667.22;;;3.61;75.66
37852;BME280;23691;52.486;4.650;2023-03-15T06:34:51;101671.66;;;3.60;76.05
37852;BME280;23691;52.486;4.650;2023-03-15T06:37:17;101680.66;;;3.58;76.13
37852;BME280;23691;52.486;4.650;2023-03-15T06:39:42;101673.56;;;3.58;75.87
37852;BME280;23691;52.486;4.650;2023-03-15T06:42:09;101679.81;;;3.57;75.98
37852;BME280;23691;52.486;4.650;2023-03-15T06:44:37;101685.94;;;3.58;75.86
37852;BME280;23691;52.486;4.650;2023-03-15T06:47:03;101684.16;;;3.58;75.73
37852;BME280;23691;52.486;4.650;2023-03-15T06:49:29;101686.78;;;3.58;76.09
37852;BME280;23691;52.486;4.650;2023-03-15T06:51:55;101696.34;;;3.61;76.10
37852;BME280;23691;52.486;4.650;2023-03-15T06:54:20;101694.44;;;3.63;76.04
37852;BME280;23691;52.486;4.650;2023-03-15T06:56:46;101695.19;;;3.65;76.33
37852;BME280;23691;52.486;4.650;2023-03-15T06:59:11;101702.09;;;3.68;76.17
37852;BME280;23691;52.486;4.650;2023-03-15T07:01:37;101696.69;;;3.69;76.25
37852;BME280;23691;52.486;4.650;2023-03-15T07:04:02;101708.69;;;3.75;76.17
37852;BME280;23691;52.486;4.650;2023-03-15T07:06:27;101706.69;;;3.78;75.98
37852;BME280;23691;52.486;4.650;2023-03-15T07:08:53;101716.88;;;3.84;75.98
37852;BME280;23691;52.486;4.650;2023-03-15T07:11:19;101719.25;;;3.89;75.71
37852;BME280;23691;52.486;4.650;2023-03-15T07:13:45;101718.81;;;3.95;75.83
37852;BME280;23691;52.486;4.650;2023-03-15T07:16:10;101720.13;;;4.02;76.08
37852;BME280;23691;52.486;4.650;2023-03-15T07:18:35;101718.09;;;4.06;76.26
37852;BME280;23691;52.486;4.650;2023-03-15T07:21:02;101721.13;;;4.14;76.20
37852;BME280;23691;52.486;4.650;2023-03-15T07:23:31;101729.41;;;4.22;76.11
37852;BME280;23691;52.486;4.650;2023-03-15T07:25:57;101735.34;;;4.26;75.55
37852;BME280;23691;52.486;4.650;2023-03-15T07:28:24;101731.13;;;4.36;76.06
37852;BME280;23691;52.486;4.650;2023-03-15T07:31:01;101734.97;;;4.45;76.25
37852;BME280;23691;52.486;4.650;2023-03-15T07:33:28;101739.75;;;4.52;75.75
37852;BME280;23691;52.486;4.650;2023-03-15T07:35:54;101741.16;;;4.58;75.99
37852;BME280;23691;52.486;4.650;2023-03-15T07:38:21;101748.66;;;4.64;75.86
37852;BME280;23691;52.486;4.650;2023-03-15T07:40:47;101754.41;;;4.71;76.05
37852;BME280;23691;52.486;4.650;2023-03-15T07:43:13;101751.16;;;4.80;75.71
37852;BME280;23691;52.486;4.650;2023-03-15T07:45:42;101757.38;;;4.92;76.13
37852;BME280;23691;52.486;4.650;2023-03-15T07:48:07;101767.06;;;5.06;75.84
37852;BME280;23691;52.486;4.650;2023-03-15T07:50:33;101758.03;;;5.21;75.73
37852;BME280;23691;52.486;4.650;2023-03-15T07:52:58;101762.06;;;5.40;75.57
37852;BME280;23691;52.486;4.650;2023-03-15T07:55:24;101761.81;;;5.55;75.67
37852;BME280;23691;52.486;4.650;2023-03-15T07:57:50;101767.19;;;5.67;75.51
37852;BME280;23691;52.486;4.650;2023-03-15T08:00:16;101767.69;;;5.85;75.50
37852;BME280;23691;52.486;4.650;2023-03-15T08:02:42;101763.63;;;5.92;75.46
37852;BME280;23691;52.486;4.650;2023-03-15T08:05:08;101763.81;;;6.01;75.54
37852;BME280;23691;52.486;4.650;2023-03-15T08:07:34;101770.50;;;6.07;75.47
37852;BME280;23691;52.486;4.650;2023-03-15T08:10:03;101761.50;;;6.21;75.20
37852;BME280;23691;52.486;4.650;2023-03-15T08:12:32;101770.75;;;6.39;74.88
37852;BME280;23691;52.486;4.650;2023-03-15T08:14:59;101764.03;;;6.47;74.89
37852;BME280;23691;52.486;4.650;2023-03-15T08:17:28;101776.03;;;6.52;74.85
37852;BME280;23691;52.486;4.650;2023-03-15T08:19:53;101772.31;;;6.66;74.31
37852;BME280;23691;52.486;4.650;2023-03-15T08:22:19;101777.38;;;6.69;74.17
37852;BME280;23691;52.486;4.650;2023-03-15T08:24:44;101784.28;;;6.72;74.03
37852;BME280;23691;52.486;4.650;2023-03-15T08:27:10;101794.13;;;6.82;73.67
37852;BME280;23691;52.486;4.650;2023-03-15T08:29:35;101793.03;;;6.85;73.53
37852;BME280;23691;52.486;4.650;2023-03-15T08:32:01;101793.88;;;6.85;73.49
37852;BME280;23691;52.486;4.650;2023-03-15T08:34:27;101801.16;;;6.95;73.10
37852;BME280;23691;52.486;4.650;2023-03-15T08:36:53;101800.88;;;6.86;72.55
37852;BME280;23691;52.486;4.650;2023-03-15T08:39:18;101807.78;;;6.78;71.88
37852;BME280;23691;52.486;4.650;2023-03-15T08:41:43;101805.47;;;6.73;71.82
37852;BME280;23691;52.486;4.650;2023-03-15T08:44:09;101804.47;;;6.74;71.75
37852;BME280;23691;52.486;4.650;2023-03-15T08:46:35;101807.78;;;6.78;71.31
37852;BME280;23691;52.486;4.650;2023-03-15T08:49:01;101805.88;;;6.91;70.72
37852;BME280;23691;52.486;4.650;2023-03-15T08:51:26;101806.34;;;6.85;70.80
37852;BME280;23691;52.486;4.650;2023-03-15T08:53:53;101812.75;;;6.82;70.61
37852;BME280;23691;52.486;4.650;2023-03-15T08:56:18;101808.03;;;6.86;70.18
37852;BME280;23691;52.486;4.650;2023-03-15T08:58:44;101806.94;;;6.88;69.86
37852;BME280;23691;52.486;4.650;2023-03-15T09:01:11;101799.59;;;6.92;69.31
37852;BME280;23691;52.486;4.650;2023-03-15T09:03:36;101805.66;;;7.05;69.02
37852;BME280;23691;52.486;4.650;2023-03-15T09:06:02;101802.78;;;7.20;68.63
37852;BME280;23691;52.486;4.650;2023-03-15T09:08:28;101807.75;;;7.36;68.13
37852;BME280;23691;52.486;4.650;2023-03-15T09:10:56;101805.56;;;7.41;67.20
37852;BME280;23691;52.486;4.650;2023-03-15T09:13:23;101800.03;;;7.44;66.59
37852;BME280;23691;52.486;4.650;2023-03-15T09:15:49;101795.31;;;7.59;66.50
37852;BME280;23691;52.486;4.650;2023-03-15T09:18:15;101799.91;;;7.68;66.11
37852;BME280;23691;52.486;4.650;2023-03-15T09:20:41;101796.13;;;7.82;66.02
37852;BME280;23691;52.486;4.650;2023-03-15T09:23:06;101788.50;;;7.88;65.74
37852;BME280;23691;52.486;4.650;2023-03-15T09:25:31;101790.31;;;7.88;65.62
37852;BME280;23691;52.486;4.650;2023-03-15T09:27:57;101790.06;;;7.80;65.27
37852;BME280;23691;52.486;4.650;2023-03-15T09:30:23;101792.38;;;7.62;65.12
37852;BME280;23691;52.486;4.650;2023-03-15T09:32:48;101786.81;;;7.65;64.72
37852;BME280;23691;52.486;4.650;2023-03-15T09:35:17;101792.88;;;7.67;64.67
37852;BME280;23691;52.486;4.650;2023-03-15T09:37:42;101794.19;;;7.72;65.14
37852;BME280;23691;52.486;4.650;2023-03-15T09:40:21;101802.06;;;7.85;64.45
37852;BME280;23691;52.486;4.650;2023-03-15T09:50:36;101818.34;;;8.14;63.20
37852;BME280;23691;52.486;4.650;2023-03-15T09:55:36;101823.41;;;8.40;62.54
37852;BME280;23691;52.486;4.650;2023-03-15T09:58:24;101820.56;;;8.53;62.65
37852;BME280;23691;52.486;4.650;2023-03-15T10:00:52;101816.91;;;8.54;62.22
37852;BME280;23691;52.486;4.650;2023-03-15T10:03:28;101817.25;;;8.60;62.13
37852;BME280;23691;52.486;4.650;2023-03-15T10:05:59;101820.72;;;8.72;61.54
37852;BME280;23691;52.486;4.650;2023-03-15T10:08:27;101828.81;;;8.82;60.61
37852;BME280;23691;52.486;4.650;2023-03-15T10:11:15;101825.22;;;8.72;59.59
37852;BME280;23691;52.486;4.650;2023-03-15T10:16:47;101830.09;;;8.67;58.91
37852;BME280;23691;52.486;4.650;2023-03-15T10:19:48;101832.25;;;8.73;58.67
37852;BME280;23691;52.486;4.650;2023-03-15T10:25:15;101839.41;;;8.93;58.89
37852;BME280;23691;52.486;4.650;2023-03-15T10:27:43;101843.25;;;9.00;58.94
37852;BME280;23691;52.486;4.650;2023-03-15T10:30:18;101841.13;;;8.94;58.25
37852;BME280;23691;52.486;4.650;2023-03-15T10:33:13;101849.63;;;8.88;58.06
37852;BME280;23691;52.486;4.650;2023-03-15T10:35:33;101857.63;;;8.88;58.40
37852;BME280;23691;52.486;4.650;2023-03-15T10:37:58;101863.31;;;8.95;57.92
37852;BME280;23691;52.486;4.650;2023-03-15T10:40:39;101869.09;;;9.00;58.13
37852;BME280;23691;52.486;4.650;2023-03-15T10:43:12;101870.94;;;8.99;57.93
37852;BME280;23691;52.486;4.650;2023-03-15T10:45:40;101867.88;;;9.04;57.73
37852;BME280;23691;52.486;4.650;2023-03-15T10:48:07;101874.25;;;9.13;57.59
37852;BME280;23691;52.486;4.650;2023-03-15T10:50:33;101866.69;;;9.18;57.36
37852;BME280;23691;52.486;4.650;2023-03-15T10:53:10;101873.22;;;9.25;57.18
37852;BME280;23691;52.486;4.650;2023-03-15T10:55:42;101879.41;;;9.26;56.19
37852;BME280;23691;52.486;4.650;2023-03-15T10:58:41;101895.75;;;9.32;55.83
37852;BME280;23691;52.486;4.650;2023-03-15T11:01:20;101902.91;;;9.32;55.16
37852;BME280;23691;52.486;4.650;2023-03-15T11:06:40;101912.03;;;9.29;53.15
37852;BME280;23691;52.486;4.650;2023-03-15T11:09:11;101917.03;;;9.22;51.41
37852;BME280;23691;52.486;4.650;2023-03-15T11:12:01;101920.97;;;9.18;50.82
37852;BME280;23691;52.486;4.650;2023-03-15T11:14:48;101914.25;;;9.24;50.30
37852;BME280;23691;52.486;4.650;2023-03-15T11:17:20;101911.69;;;9.22;48.97
37852;BME280;23691;52.486;4.650;2023-03-15T11:19:52;101911.84;;;9.21;47.39
37852;BME280;23691;52.486;4.650;2023-03-15T11:22:19;101911.25;;;9.17;47.96
37852;BME280;23691;52.486;4.650;2023-03-15T11:24:45;101916.88;;;9.35;48.32
37852;BME280;23691;52.486;4.650;2023-03-15T11:27:12;101907.28;;;9.33;46.31
37852;BME280;23691;52.486;4.650;2023-03-15T11:29:48;101914.38;;;9.43;47.02
37852;BME280;23691;52.486;4.650;2023-03-15T11:32:22;101916.56;;;9.59;47.60
37852;BME280;23691;52.486;4.650;2023-03-15T11:35:11;101917.28;;;9.82;47.82
37852;BME280;23691;52.486;4.650;2023-03-15T11:37:51;101915.50;;;9.93;47.03
37852;BME280;23691;52.486;4.650;2023-03-15T11:40:25;101908.78;;;10.08;47.01
37852;BME280;23691;52.486;4.650;2023-03-15T11:43:03;101913.63;;;10.14;46.83
37852;BME280;23691;52.486;4.650;2023-03-15T11:45:35;101912.63;;;10.15;46.99
37852;BME280;23691;52.486;4.650;2023-03-15T11:48:14;101914.25;;;10.06;47.00
37852;BME280;23691;52.486;4.650;2023-03-15T11:50:41;101915.09;;;9.97;46.17
37852;BME280;23691;52.486;4.650;2023-03-15T11:53:09;101917.88;;;9.96;46.54
37852;BME280;23691;52.486;4.650;2023-03-15T11:55:37;101917.94;;;10.05;46.42
37852;BME280;23691;52.486;4.650;2023-03-15T11:58:28;101916.72;;;10.19;46.36
37852;BME280;23691;52.486;4.650;2023-03-15T12:00:58;101919.31;;;10.30;45.90
37852;BME280;23691;52.486;4.650;2023-03-15T12:03:44;101915.50;;;10.33;45.71
37852;BME280;23691;52.486;4.650;2023-03-15T12:08:47;101923.41;;;10.35;47.49
37852;BME280;23691;52.486;4.650;2023-03-15T12:14:03;101928.19;;;10.31;47.62
37852;BME280;23691;52.486;4.650;2023-03-15T12:16:44;101923.09;;;10.28;48.05
37852;BME280;23691;52.486;4.650;2023-03-15T12:19:17;101916.81;;;10.39;48.08
37852;BME280;23691;52.486;4.650;2023-03-15T12:21:46;101914.41;;;10.45;48.19
37852;BME280;23691;52.486;4.650;2023-03-15T12:26:51;101915.03;;;10.68;47.60
37852;BME280;23691;52.486;4.650;2023-03-15T12:29:24;101913.19;;;10.59;46.94
37852;BME280;23691;52.486;4.650;2023-03-15T12:32:15;101907.81;;;10.49;46.03
37852;BME280;23691;52.486;4.650;2023-03-15T12:34:55;101910.81;;;10.56;46.24
37852;BME280;23691;52.486;4.650;2023-03-15T12:37:26;101902.47;;;10.49;45.98
37852;BME280;23691;52.486;4.650;2023-03-15T12:53:35;101884.75;;;10.78;45.87
37852;BME280;23691;52.486;4.650;2023-03-15T12:56:23;101890.81;;;10.80;45.73
37852;BME280;23691;52.486;4.650;2023-03-15T12:58:54;101884.19;;;10.84;45.69
37852;BME280;23691;52.486;4.650;2023-03-15T13:01:22;101883.19;;;10.85;46.09
37852;BME280;23691;52.486;4.650;2023-03-15T13:03:54;101890.09;;;10.78;46.30
37852;BME280;23691;52.486;4.650;2023-03-15T13:06:40;101886.56;;;10.77;46.96
37852;BME280;23691;52.486;4.650;2023-03-15T13:12:06;101877.00;;;10.84;47.87
37852;BME280;23691;52.486;4.650;2023-03-15T13:17:43;101879.81;;;10.92;48.08
37852;BME280;23691;52.486;4.650;2023-03-15T13:23:12;101878.53;;;10.87;47.77
37852;BME280;23691;52.486;4.650;2023-03-15T13:28:23;101876.41;;;11.10;48.31
37852;BME280;23691;52.486;4.650;2023-03-15T13:30:51;101883.59;;;11.19;48.47
37852;BME280;23691;52.486;4.650;2023-03-15T13:40:52;101875.16;;;10.94;49.45
37852;BME280;23691;52.486;4.650;2023-03-15T13:43:18;101879.81;;;11.02;49.77
37852;BME280;23691;52.486;4.650;2023-03-15T13:45:44;101889.97;;;11.08;49.74
37852;BME280;23691;52.486;4.650;2023-03-15T13:48:11;101886.88;;;11.03;49.32
37852;BME280;23691;52.486;4.650;2023-03-15T13:50:38;101885.88;;;11.04;49.57
37852;BME280;23691;52.486;4.650;2023-03-15T13:53:03;101892.06;;;11.05;49.74
37852;BME280;23691;52.486;4.650;2023-03-15T13:55:32;101901.50;;;10.99;50.17
37852;BME280;23691;52.486;4.650;2023-03-15T13:58:05;101893.34;;;10.91;50.56
37852;BME280;23691;52.486;4.650;2023-03-15T14:00:31;101903.63;;;10.86;51.42
37852;BME280;23691;52.486;4.650;2023-03-15T14:03:02;101904.47;;;10.86;51.03
37852;BME280;23691;52.486;4.650;2023-03-15T14:05:31;101901.50;;;10.80;50.86
37852;BME280;23691;52.486;4.650;2023-03-15T14:08:06;101894.31;;;10.80;50.79
37852;BME280;23691;52.486;4.650;2023-03-15T14:10:39;101892.50;;;10.61;50.64
37852;BME280;23691;52.486;4.650;2023-03-15T14:13:30;101899.91;;;10.48;51.07
37852;BME280;23691;52.486;4.650;2023-03-15T14:16:02;101897.66;;;10.53;51.54
37852;BME280;23691;52.486;4.650;2023-03-15T14:18:36;101890.66;;;10.52;51.83